Latest Coastal Weather Observations for Newcastle Nobbys

IDN60701

Issued at 9:21 am EDT Monday 5 December 2016 (issued every 10 minutes, with the page automatically refreshed every 10 minutes)

About coastal observations | Map of coastal stations | Coastal observations for NSW | Marine services | Other Formats
Station Details ID: 061055 Name: NEWCASTLE NOBBYS SIGNAL STATION AWS Lat: -32.92 Lon: 151.80 Height: 33.0 m
Data from the previous 72 hours. | See also: Recent months at Newcastle Nobbys
Date/Time
EDT
Temp
°C
Wind Pressure Rain since
9am
mm
Weather Cloud Vis
km
Sea
Height
m
Swell
Dir  Spd
kts
Gust
kts
hPa Trend Height
m
Period
s
Dir
05/09:00am 22.7 W 1 3 - - 0.0 - - - - - - -
05/08:30am 22.5 SE 5 7 - - 0.0 - - - - - - -
05/08:00am 22.1 SSW 12 17 - - 0.0 - - - - - - -
05/07:30am 22.1 S 18 22 - - 0.0 - - - - - - -
05/07:00am 22.3 SSW 20 27 - - 0.0 - - - - - - -
05/06:30am 22.8 SSW 14 19 - - 0.0 - - - - - - -
05/06:00am 22.6 WSW 3 5 - - 0.0 - - - - - - -
05/05:30am 22.3 S 3 4 - - 0.0 - - - - - - -
05/05:00am 22.7 SE 2 4 - - 0.0 - - - - - - -
05/04:30am 22.3 ENE 3 6 - - 0.0 - - - - - - -
05/04:00am 22.1 E 2 4 - - 0.0 - - - - - - -
05/03:30am 22.1 ENE 2 3 - - 0.0 - - - - - - -
05/03:00am 22.4 NNE 4 7 - - 0.0 - - - - - - -
05/02:30am 22.2 NE 5 8 - - 0.0 - - - - - - -
05/02:00am 22.0 ENE 6 7 - - 0.0 - - - - - - -
05/01:30am 22.1 ENE 6 8 - - 0.0 - - - - - - -
05/01:00am 22.1 ENE 8 10 - - 0.0 - - - - - - -
05/12:30am 22.1 ENE 4 7 - - 0.0 - - - - - - -
05/12:00am 22.1 ENE 4 7 - - 0.0 - - - - - - -
 
Date/Time
EDT
Temp
°C
Wind Pressure Rain since
9am
mm
Weather Cloud Vis
km
Sea
Height
m
Swell
Dir  Spd
kts
Gust
kts
hPa Trend Height
m
Period
s
Dir
04/11:30pm 22.1 ENE 3 4 - - 0.0 - - - - - - -
04/11:00pm 22.1 NE 8 11 - - 0.0 - - - - - - -
04/10:30pm 22.2 ENE 9 12 - - 0.0 - - - - - - -
04/10:00pm 22.3 ENE 12 15 - - 0.0 - - - - - - -
04/09:30pm 22.3 ENE 12 15 - - 0.0 - - - - - - -
04/09:00pm 22.1 ENE 13 15 - - 0.0 - - - - - - -
04/08:30pm 22.2 ENE 14 18 - - 0.0 - - - - - - -
04/08:00pm 22.3 ENE 14 18 - - 0.0 - - - - - - -
04/07:30pm 22.3 E 15 19 - - 0.0 - - - - - - -
04/07:00pm 22.5 ENE 14 18 - - 0.0 - - - - - - -
04/06:30pm 22.5 E 16 19 - - 0.0 - - - - - - -
04/06:00pm 22.8 E 14 17 - - 0.0 - - - - - - -
04/05:30pm 23.0 ENE 13 17 - - 0.0 - - - - - - -
04/05:00pm 23.3 E 12 15 - - 0.0 - - - - - - -
04/04:30pm 23.4 E 13 16 - - 0.0 - - - - - - -
04/04:00pm 23.7 E 13 15 - - 0.0 - - - - - - -
04/03:30pm 23.6 E 12 14 - - 0.0 - - - - - - -
04/03:00pm 23.6 E 11 13 - - 0.0 - - - - - - -
04/02:30pm 23.7 ESE 12 14 - - 0.0 - - - - - - -
04/02:00pm 23.9 ESE 10 13 - - 0.0 - - - - - - -
04/01:30pm 23.8 ESE 10 11 - - 0.0 - - - - - - -
04/01:00pm 24.0 ESE 8 10 - - 0.0 - - - - - - -
04/12:30pm 24.0 ESE 7 8 - - 0.0 - - - - - - -
04/12:00pm 24.4 SE 6 7 - - 0.0 - - - - - - -
04/11:30am 24.3 SE 4 5 - - 0.0 - - - - - - -
04/11:00am 23.5 SE 5 5 - - 0.0 - - - - - - -
04/10:30am 22.8 S 6 7 - - 0.0 - - - - - - -
04/10:00am 22.3 S 6 7 - - 0.0 - - - - - - -
04/09:30am 22.2 S 6 7 - - 0.0 - - - - - - -
04/09:00am 22.2 S 5 7 - - 0.0 - - - - - - -
04/08:30am 22.4 SE 2 3 - - 0.0 - - - - - - -
04/08:00am 21.3 SW 4 8 - - 0.0 - - - - - - -
04/07:30am 21.0 SSW 6 9 - - 0.0 - - - - - - -
04/07:00am 20.6 SSW 7 10 - - 0.0 - - - - - - -
04/06:30am 20.4 SSW 8 11 - - 0.0 - - - - - - -
04/06:00am 20.6 SSW 8 11 - - 0.0 - - - - - - -
04/05:30am 20.8 SSW 7 10 - - 0.0 - - - - - - -
04/05:00am 21.1 SSW 7 9 - - 0.0 - - - - - - -
04/04:30am 20.9 SSW 7 9 - - 0.0 - - - - - - -
04/04:00am 20.9 SSW 6 8 - - 0.0 - - - - - - -
04/03:30am 20.9 SSW 6 7 - - 0.0 - - - - - - -
04/03:00am 20.8 S 8 9 - - 0.0 - - - - - - -
04/02:30am 21.0 S 7 8 - - 0.0 - - - - - - -
04/02:00am 20.9 S 6 7 - - 0.0 - - - - - - -
04/01:30am 20.9 S 6 7 - - 0.0 - - - - - - -
04/01:00am 20.8 SSE 6 7 - - 0.0 - - - - - - -
04/12:30am 20.9 SSE 5 6 - - 0.0 - - - - - - -
04/12:00am 20.9 SSE 4 4 - - 0.0 - - - - - - -
 
Date/Time
EDT
Temp
°C
Wind Pressure Rain since
9am
mm
Weather Cloud Vis
km
Sea
Height
m
Swell
Dir  Spd
kts
Gust
kts
hPa Trend Height
m
Period
s
Dir
03/11:30pm 21.1 ESE 4 5 - - 0.0 - - - - - - -
03/11:00pm 21.1 ESE 4 5 - - 0.0 - - - - - - -
03/10:30pm 21.1 ESE 5 6 - - 0.0 - - - - - - -
03/10:00pm 21.1 E 5 6 - - 0.0 - - - - - - -
03/09:30pm 21.2 E 5 6 - - 0.0 - - - - - - -
03/09:00pm 21.2 E 5 7 - - 0.0 - - - - - - -
03/08:30pm 21.2 ENE 5 7 - - 0.0 - - - - - - -
03/08:00pm 21.4 E 7 8 - - 0.0 - - - - - - -
03/07:30pm 21.5 E 7 9 - - 0.0 - - - - - - -
03/07:00pm 21.8 ESE 8 9 - - 0.0 - - - - - - -
03/06:30pm 21.9 ESE 7 9 - - 0.0 - - - - - - -
03/06:00pm 22.0 ESE 8 10 - - 0.0 - - - - - - -
03/05:30pm 21.5 SE 22 26 - - 0.0 - - - - - - -
03/05:24pm 21.5 ESE 16 24 - - 0.0 - - - - - - -
03/05:00pm 21.8 SE 10 12 - - 0.0 - - - - - - -
03/04:30pm 22.1 SE 12 14 - - 0.0 - - - - - - -
03/04:00pm 23.0 SE 12 14 - - 0.0 - - - - - - -
03/03:30pm 23.0 SE 11 12 - - 0.0 - - - - - - -
03/03:00pm 22.6 SE 11 13 - - 0.0 - - - - - - -
03/02:30pm 22.7 SSE 12 14 - - 0.0 - - - - - - -
03/02:00pm 23.3 SSE 12 14 - - 0.0 - - - - - - -
03/01:30pm 22.7 SSE 13 15 - - 0.0 - - - - - - -
03/01:00pm 23.1 SSE 13 15 - - 0.0 - - - - - - -
03/12:30pm 23.0 SSE 13 14 - - 0.0 - - - - - - -
03/12:00pm 23.3 SSE 12 14 - - 0.0 - - - - - - -
03/11:30am 23.7 SSE 10 12 - - 0.0 - - - - - - -
03/11:00am 23.0 S 12 14 - - 0.0 - - - - - - -
03/10:30am 22.9 S 11 13 - - 0.0 - - - - - - -
03/10:00am 22.8 S 11 13 - - 0.0 - - - - - - -
03/09:30am 22.4 S 12 14 - - 0.0 - - - - - - -
03/09:00am 21.9 S 14 16 - - 0.0 - - - - - - -
03/08:30am 21.8 S 14 17 - - 0.0 - - - - - - -
03/08:00am 21.7 S 15 18 - - 0.0 - - - - - - -
03/07:30am 21.6 S 15 18 - - 0.0 - - - - - - -
03/07:00am 21.7 S 16 19 - - 0.0 - - - - - - -
03/06:30am 21.3 S 17 20 - - 0.0 - - - - - - -
03/06:00am 21.4 S 17 21 - - 0.0 - - - - - - -
03/05:30am 21.3 S 17 20 - - 0.0 - - - - - - -
03/05:00am 21.4 S 17 21 - - 0.0 - - - - - - -
03/04:30am 21.4 SSW 17 21 - - 0.0 - - - - - - -
03/04:00am 21.5 S 17 21 - - 0.0 - - - - - - -
03/03:30am 21.6 S 19 22 - - 0.0 - - - - - - -
03/03:00am 21.7 SSW 13 17 - - 0.0 - - - - - - -
03/02:30am 21.8 SSW 14 19 - - 0.0 - - - - - - -
03/02:00am 21.9 SSW 15 20 - - 0.0 - - - - - - -
03/01:30am 21.9 SSW 15 22 - - 0.0 - - - - - - -
03/01:00am 21.8 SSW 16 21 - - 0.0 - - - - - - -
03/12:30am 22.1 SSW 15 21 - - 0.0 - - - - - - -
03/12:00am 22.6 SSW 14 22 - - 0.0 - - - - - - -
 
Date/Time
EDT
Temp
°C
Wind Pressure Rain since
9am
mm
Weather Cloud Vis
km
Sea
Height
m
Swell
Dir  Spd
kts
Gust
kts
hPa Trend Height
m
Period
s
Dir
02/11:44pm 25.1 WSW 8 20 - - 0.0 - - - - - - -
02/11:30pm 25.9 WNW 5 6 - - 0.0 - - - - - - -
02/11:00pm 25.7 NW 3 6 - - 0.0 - - - - - - -
02/10:30pm 26.3 WNW 4 5 - - 0.0 - - - - - - -
02/10:00pm 26.0 WNW 5 7 - - 0.0 - - - - - - -
02/09:30pm 26.1 NW 4 6 - - 0.0 - - - - - - -
02/09:00pm 26.3 NW 3 5 - - 0.0 - - - - - - -
02/08:30pm 26.4 WNW 4 5 - - 0.0 - - - - - - -
02/08:00pm 26.2 NNE 7 11 - - 0.0 - - - - - - -
02/07:30pm 25.1 NE 5 7 - - 0.0 - - - - - - -
02/07:00pm 25.9 E 3 4 - - 0.0 - - - - - - -
02/06:30pm 26.1 NE 1 4 - - 0.0 - - - - - - -
02/06:00pm 25.4 W 6 11 - - 0.0 - - - - - - -
02/05:30pm 24.9 ENE 2 5 - - 0.0 - - - - - - -
02/05:00pm 24.3 NE 4 7 - - 0.0 - - - - - - -
02/04:30pm 24.7 NE 5 8 - - 0.0 - - - - - - -
02/04:00pm 24.7 E 6 9 - - 0.0 - - - - - - -
02/03:30pm 25.6 NE 6 8 - - 0.0 - - - - - - -
02/03:00pm 25.6 ESE 11 12 - - 0.0 - - - - - - -
02/02:30pm 25.1 E 10 12 - - 0.0 - - - - - - -
02/02:00pm 25.7 E 9 11 - - 0.0 - - - - - - -
02/01:30pm 25.4 E 10 11 - - 0.0 - - - - - - -
02/01:00pm 25.8 E 10 12 - - 0.0 - - - - - - -
02/12:30pm 26.4 E 8 10 - - 0.0 - - - - - - -
02/12:00pm 26.9 E 8 9 - - 0.0 - - - - - - -
02/11:30am 26.2 E 8 9 - - 0.0 - - - - - - -
02/11:00am 28.1 SE 8 9 - - 0.0 - - - - - - -
02/10:30am 29.6 N 2 3 - - 0.0 - - - - - - -
02/10:00am 28.0 NW 5 8 - - 0.0 - - - - - - -
02/09:30am 26.8 WNW 7 9 - - 0.0 - - - - - - -

Other Formats:

Comma delimited format used in spreadsheet applications
http://www.bom.gov.au/fwo/IDN60701/IDN60701.94774.axf

JavaScript Object Notation format (JSON) in row-major order
http://www.bom.gov.au/fwo/IDN60701/IDN60701.94774.json